sensor_id;sensor_type;location;lat;lon;timestamp;pressure;altitude;pressure_sealevel;temperature;humidity
45789;BME280;31492;54.856;26.318;2022-11-20T01:29:24;1000.7;;;-3.9;100
45789;BME280;31492;54.856;26.318;2022-11-20T01:34:03;1001.4;;;-4.5;100
45789;BME280;31492;54.856;26.318;2022-11-20T01:39:03;1001.4;;;-4.5;100
45789;BME280;31492;54.856;26.318;2022-11-20T01:44:03;1001.5;;;-4.6;100
45789;BME280;31492;54.856;26.318;2022-11-20T01:49:14;1001.5;;;-4.8;100
45789;BME280;31492;54.856;26.318;2022-11-20T01:54:25;1001.6;;;-4.8;100
45789;BME280;31492;54.856;26.318;2022-11-20T01:59:03;1001.6;;;-4.8;100
45789;BME280;31492;54.856;26.318;2022-11-20T02:04:02;1001.7;;;-4.8;100
45789;BME280;31492;54.856;26.318;2022-11-20T02:09:02;1001.8;;;-4.9;100
45789;BME280;31492;54.856;26.318;2022-11-20T02:14:02;1001.8;;;-4.9;100
45789;BME280;31492;54.856;26.318;2022-11-20T02:19:03;1001.8;;;-5;100
45789;BME280;31492;54.856;26.318;2022-11-20T02:24:03;1001.8;;;-5;100
45789;BME280;31492;54.856;26.318;2022-11-20T02:29:10;1001.8;;;-5.2;100
45789;BME280;31492;54.856;26.318;2022-11-20T02:34:50;1001.8;;;-5.3;100
45789;BME280;31492;54.856;26.318;2022-11-20T02:39:02;1001.8;;;-5.3;100
45789;BME280;31492;54.856;26.318;2022-11-20T02:44:02;1001.7;;;-5.5;100
45789;BME280;31492;54.856;26.318;2022-11-20T02:49:02;1001.7;;;-5.6;100
45789;BME280;31492;54.856;26.318;2022-11-20T02:54:02;1001.8;;;-5.8;100
45789;BME280;31492;54.856;26.318;2022-11-20T02:59:22;1001.9;;;-5.9;100
45789;BME280;31492;54.856;26.318;2022-11-20T03:04:22;1001.9;;;-6;100
45789;BME280;31492;54.856;26.318;2022-11-20T03:09:02;1001.8;;;-6.1;100
45789;BME280;31492;54.856;26.318;2022-11-20T03:14:14;1001.8;;;-6.2;100
45789;BME280;31492;54.856;26.318;2022-11-20T03:19:02;1001.8;;;-6.3;100
45789;BME280;31492;54.856;26.318;2022-11-20T03:24:26;1001.8;;;-6.3;100
45789;BME280;31492;54.856;26.318;2022-11-20T03:29:03;1001.8;;;-6.5;100
45789;BME280;31492;54.856;26.318;2022-11-20T03:34:03;1001.8;;;-6.5;100
45789;BME280;31492;54.856;26.318;2022-11-20T03:39:02;1001.9;;;-6.7;100
45789;BME280;31492;54.856;26.318;2022-11-20T03:44:12;1002;;;-6.8;100
45789;BME280;31492;54.856;26.318;2022-11-20T03:49:02;1002;;;-6.8;100
45789;BME280;31492;54.856;26.318;2022-11-20T03:54:03;1002;;;-7;100
45789;BME280;31492;54.856;26.318;2022-11-20T03:59:02;1002;;;-6.9;100
45789;BME280;31492;54.856;26.318;2022-11-20T04:04:02;1002;;;-7;100
45789;BME280;31492;54.856;26.318;2022-11-20T04:09:12;1002.1;;;-7;100
45789;BME280;31492;54.856;26.318;2022-11-20T04:14:14;1002.2;;;-7.2;100
45789;BME280;31492;54.856;26.318;2022-11-20T04:19:03;1002.3;;;-7.2;100
45789;BME280;31492;54.856;26.318;2022-11-20T04:24:10;1002.3;;;-7.2;100
45789;BME280;31492;54.856;26.318;2022-11-20T04:29:24;1002.5;;;-7.4;100
45789;BME280;31492;54.856;26.318;2022-11-20T04:34:36;1002.5;;;-7.4;100
45789;BME280;31492;54.856;26.318;2022-11-20T04:39:24;1002.5;;;-7.5;100
45789;BME280;31492;54.856;26.318;2022-11-20T04:44:03;1002.6;;;-7.5;100
45789;BME280;31492;54.856;26.318;2022-11-20T04:49:10;1002.6;;;-7.6;100
45789;BME280;31492;54.856;26.318;2022-11-20T04:54:20;1002.6;;;-7.8;100
45789;BME280;31492;54.856;26.318;2022-11-20T04:59:26;1002.6;;;-7.9;100
45789;BME280;31492;54.856;26.318;2022-11-20T05:04:02;1002.6;;;-8.1;100
45789;BME280;31492;54.856;26.318;2022-11-20T05:09:02;1002.6;;;-8.1;100
45789;BME280;31492;54.856;26.318;2022-11-20T05:14:10;1002.6;;;-8.2;100
45789;BME280;31492;54.856;26.318;2022-11-20T05:19:40;1002.7;;;-8.3;100
45789;BME280;31492;54.856;26.318;2022-11-20T05:24:02;1002.8;;;-8.3;100
45789;BME280;31492;54.856;26.318;2022-11-20T05:29:14;1002.7;;;-8.3;100
45789;BME280;31492;54.856;26.318;2022-11-20T05:34:12;1002.7;;;-8.2;100
45789;BME280;31492;54.856;26.318;2022-11-20T05:39:10;1002.8;;;-8.2;100
45789;BME280;31492;54.856;26.318;2022-11-20T05:44:02;1002.8;;;-8.3;100
45789;BME280;31492;54.856;26.318;2022-11-20T05:49:12;1002.7;;;-8.2;100
45789;BME280;31492;54.856;26.318;2022-11-20T05:54:34;1002.6;;;-8.2;100
45789;BME280;31492;54.856;26.318;2022-11-20T05:59:10;1002.6;;;-8.2;100
45789;BME280;31492;54.856;26.318;2022-11-20T06:04:10;1002.6;;;-8.2;100
45789;BME280;31492;54.856;26.318;2022-11-20T06:09:02;1002.6;;;-8.2;100
45789;BME280;31492;54.856;26.318;2022-11-20T06:14:02;1002.6;;;-8.1;100
45789;BME280;31492;54.856;26.318;2022-11-20T06:19:14;1002.6;;;-8.4;100
45789;BME280;31492;54.856;26.318;2022-11-20T06:24:02;1002.6;;;-8.6;100
45789;BME280;31492;54.856;26.318;2022-11-20T06:29:02;1002.7;;;-8.6;100
45789;BME280;31492;54.856;26.318;2022-11-20T06:34:26;1002.7;;;-8.6;100
45789;BME280;31492;54.856;26.318;2022-11-20T06:39:02;1002.6;;;-8.7;100
45789;BME280;31492;54.856;26.318;2022-11-20T06:44:12;1002.6;;;-8.7;100
45789;BME280;31492;54.856;26.318;2022-11-20T06:49:28;1002.7;;;-8.8;100
45789;BME280;31492;54.856;26.318;2022-11-20T06:54:02;1002.7;;;-8.7;100
45789;BME280;31492;54.856;26.318;2022-11-20T06:59:12;1002.7;;;-8.6;100
45789;BME280;31492;54.856;26.318;2022-11-20T07:04:38;1002.6;;;-8.6;100
45789;BME280;31492;54.856;26.318;2022-11-20T07:09:02;1002.7;;;-8.6;100
45789;BME280;31492;54.856;26.318;2022-11-20T07:14:22;1002.7;;;-8.5;100
45789;BME280;31492;54.856;26.318;2022-11-20T07:19:24;1002.7;;;-8.1;100
45789;BME280;31492;54.856;26.318;2022-11-20T07:24:02;1002.7;;;-8.1;100
45789;BME280;31492;54.856;26.318;2022-11-20T07:29:14;1002.7;;;-7.9;100
45789;BME280;31492;54.856;26.318;2022-11-20T07:34:02;1002.7;;;-7.7;100
45789;BME280;31492;54.856;26.318;2022-11-20T07:39:02;1002.6;;;-7.5;100
45789;BME280;31492;54.856;26.318;2022-11-20T07:44:12;1002.7;;;-7.5;100
45789;BME280;31492;54.856;26.318;2022-11-20T07:49:02;1002.7;;;-7.2;100
45789;BME280;31492;54.856;26.318;2022-11-20T07:54:02;1002.7;;;-6.9;100
45789;BME280;31492;54.856;26.318;2022-11-20T07:59:22;1002.7;;;-6.6;100
45789;BME280;31492;54.856;26.318;2022-11-20T08:04:02;1002.7;;;-6.4;100
45789;BME280;31492;54.856;26.318;2022-11-20T08:09:02;1002.8;;;-6.4;100
45789;BME280;31492;54.856;26.318;2022-11-20T08:14:02;1002.8;;;-6.3;100
45789;BME280;31492;54.856;26.318;2022-11-20T08:19:02;1002.9;;;-6.1;100
45789;BME280;31492;54.856;26.318;2022-11-20T08:24:14;1002.8;;;-6.1;100
45789;BME280;31492;54.856;26.318;2022-11-20T08:29:12;1002.8;;;-6;100
45789;BME280;31492;54.856;26.318;2022-11-20T08:34:12;1002.8;;;-5.9;100
45789;BME280;31492;54.856;26.318;2022-11-20T08:39:12;1002.8;;;-5.7;100
45789;BME280;31492;54.856;26.318;2022-11-20T08:44:03;1002.8;;;-5.5;100
45789;BME280;31492;54.856;26.318;2022-11-20T08:49:24;1002.9;;;-5.5;100
45789;BME280;31492;54.856;26.318;2022-11-20T08:54:24;1002.9;;;-5.5;100
45789;BME280;31492;54.856;26.318;2022-11-20T08:59:12;1002.9;;;-5.6;100
45789;BME280;31492;54.856;26.318;2022-11-20T09:04:12;1002.9;;;-5.6;100
45789;BME280;31492;54.856;26.318;2022-11-20T09:09:48;1002.9;;;-5.6;100
45789;BME280;31492;54.856;26.318;2022-11-20T09:14:02;1002.9;;;-5.5;100
45789;BME280;31492;54.856;26.318;2022-11-20T09:19:12;1002.9;;;-5.5;100
45789;BME280;31492;54.856;26.318;2022-11-20T09:24:02;1002.9;;;-5.4;100
45789;BME280;31492;54.856;26.318;2022-11-20T09:29:22;1002.9;;;-5.4;100
45789;BME280;31492;54.856;26.318;2022-11-20T09:34:10;1002.9;;;-5.3;100
45789;BME280;31492;54.856;26.318;2022-11-20T09:39:02;1002.9;;;-5.3;100
45789;BME280;31492;54.856;26.318;2022-11-20T09:44:04;1002.9;;;-5.1;100
45789;BME280;31492;54.856;26.318;2022-11-20T09:49:06;1002.7;;;-5.2;100
45789;BME280;31492;54.856;26.318;2022-11-20T09:54:13;1002.8;;;-5.2;100
45789;BME280;31492;54.856;26.318;2022-11-20T09:59:03;1002.7;;;-5.1;100
45789;BME280;31492;54.856;26.318;2022-11-20T10:04:03;1002.7;;;-5.1;100
45789;BME280;31492;54.856;26.318;2022-11-20T10:09:06;1002.7;;;-5.1;100
45789;BME280;31492;54.856;26.318;2022-11-20T10:14:16;1002.7;;;-5;100
45789;BME280;31492;54.856;26.318;2022-11-20T10:19:14;1002.7;;;-5;100
45789;BME280;31492;54.856;26.318;2022-11-20T10:24:20;1002.6;;;-4.9;100
45789;BME280;31492;54.856;26.318;2022-11-20T10:29:13;1002.6;;;-5;100
45789;BME280;31492;54.856;26.318;2022-11-20T10:34:15;1002.6;;;-5;100
45789;BME280;31492;54.856;26.318;2022-11-20T10:39:14;1002.5;;;-4.9;100
45789;BME280;31492;54.856;26.318;2022-11-20T10:44:03;1002.5;;;-4.9;100
45789;BME280;31492;54.856;26.318;2022-11-20T10:49:22;1002.5;;;-5;100
45789;BME280;31492;54.856;26.318;2022-11-20T10:54:06;1002.4;;;-4.8;100
45789;BME280;31492;54.856;26.318;2022-11-20T10:59:41;1002.4;;;-4.6;100
45789;BME280;31492;54.856;26.318;2022-11-20T11:04:02;1002.3;;;-4.6;100
45789;BME280;31492;54.856;26.318;2022-11-20T11:09:04;1002.3;;;-4.5;100
45789;BME280;31492;54.856;26.318;2022-11-20T11:14:13;1002.2;;;-4.4;100
45789;BME280;31492;54.856;26.318;2022-11-20T11:19:13;1002.2;;;-4.4;100
45789;BME280;31492;54.856;26.318;2022-11-20T11:24:21;1002.2;;;-4.3;100
45789;BME280;31492;54.856;26.318;2022-11-20T11:29:03;1002.1;;;-4.3;100
45789;BME280;31492;54.856;26.318;2022-11-20T11:34:13;1002.1;;;-4.4;100
45789;BME280;31492;54.856;26.318;2022-11-20T11:39:14;1002.1;;;-4.4;100
45789;BME280;31492;54.856;26.318;2022-11-20T11:44:15;1002.2;;;-4.3;100
45789;BME280;31492;54.856;26.318;2022-11-20T11:49:11;1002.1;;;-4.3;100
45789;BME280;31492;54.856;26.318;2022-11-20T11:54:03;1002.1;;;-4.3;100
45789;BME280;31492;54.856;26.318;2022-11-20T11:59:04;1002.1;;;-4.2;100
45789;BME280;31492;54.856;26.318;2022-11-20T12:04:04;1002.1;;;-4.2;100
45789;BME280;31492;54.856;26.318;2022-11-20T12:09:26;1002;;;-4.1;100
45789;BME280;31492;54.856;26.318;2022-11-20T12:14:26;1002;;;-4.3;100
45789;BME280;31492;54.856;26.318;2022-11-20T12:19:03;1002.1;;;-4.4;100
45789;BME280;31492;54.856;26.318;2022-11-20T12:24:29;1002.1;;;-4.3;100
45789;BME280;31492;54.856;26.318;2022-11-20T12:29:14;1002;;;-4.3;100
45789;BME280;31492;54.856;26.318;2022-11-20T12:34:15;1002.1;;;-4.3;100
45789;BME280;31492;54.856;26.318;2022-11-20T12:39:18;1002.1;;;-4.3;100
45789;BME280;31492;54.856;26.318;2022-11-20T12:44:26;1002.1;;;-4.4;100
45789;BME280;31492;54.856;26.318;2022-11-20T12:49:07;1002.1;;;-4.4;100
45789;BME280;31492;54.856;26.318;2022-11-20T12:54:21;1002;;;-4.4;100
45789;BME280;31492;54.856;26.318;2022-11-20T12:59:08;1002;;;-4.5;100
45789;BME280;31492;54.856;26.318;2022-11-20T13:04:06;1001.9;;;-4.5;100
45789;BME280;31492;54.856;26.318;2022-11-20T13:09:02;1001.9;;;-4.5;100
45789;BME280;31492;54.856;26.318;2022-11-20T13:14:04;1001.9;;;-4.6;100
45789;BME280;31492;54.856;26.318;2022-11-20T13:19:02;1001.9;;;-4.6;100
45789;BME280;31492;54.856;26.318;2022-11-20T13:24:04;1001.9;;;-4.6;100
45789;BME280;31492;54.856;26.318;2022-11-20T13:29:04;1001.9;;;-4.5;100
45789;BME280;31492;54.856;26.318;2022-11-20T13:34:03;1001.9;;;-4.5;100
45789;BME280;31492;54.856;26.318;2022-11-20T13:39:35;1001.9;;;-4.5;100
45789;BME280;31492;54.856;26.318;2022-11-20T13:44:25;1001.8;;;-4.4;100
45789;BME280;31492;54.856;26.318;2022-11-20T13:49:16;1001.7;;;-4.4;100
45789;BME280;31492;54.856;26.318;2022-11-20T13:54:06;1001.7;;;-4.4;100
45789;BME280;31492;54.856;26.318;2022-11-20T13:59:05;1001.7;;;-4.4;100
45789;BME280;31492;54.856;26.318;2022-11-20T14:04:06;1001.6;;;-4.4;100
45789;BME280;31492;54.856;26.318;2022-11-20T14:09:25;1001.6;;;-4.3;100
45789;BME280;31492;54.856;26.318;2022-11-20T14:14:13;1001.7;;;-4.3;100
45789;BME280;31492;54.856;26.318;2022-11-20T14:19:23;1001.6;;;-4.3;100
45789;BME280;31492;54.856;26.318;2022-11-20T14:24:23;1001.6;;;-4.3;100
45789;BME280;31492;54.856;26.318;2022-11-20T14:29:02;1001.6;;;-4.3;100
45789;BME280;31492;54.856;26.318;2022-11-20T14:34:02;1001.5;;;-4.3;100
45789;BME280;31492;54.856;26.318;2022-11-20T14:39:02;1001.5;;;-4.3;100
45789;BME280;31492;54.856;26.318;2022-11-20T14:44:02;1001.4;;;-4.4;100
45789;BME280;31492;54.856;26.318;2022-11-20T14:49:02;1001.4;;;-4.4;100
45789;BME280;31492;54.856;26.318;2022-11-20T14:54:10;1001.4;;;-4.3;100
45789;BME280;31492;54.856;26.318;2022-11-20T14:59:22;1001.3;;;-4.3;100
45789;BME280;31492;54.856;26.318;2022-11-20T15:04:22;1001.3;;;-4.3;100
45789;BME280;31492;54.856;26.318;2022-11-20T15:09:03;1001.2;;;-4.3;100
45789;BME280;31492;54.856;26.318;2022-11-20T15:14:03;1001.2;;;-4.3;100
45789;BME280;31492;54.856;26.318;2022-11-20T15:19:09;1001.1;;;-4.4;100
45789;BME280;31492;54.856;26.318;2022-11-20T15:24:04;1001.1;;;-4.4;100
45789;BME280;31492;54.856;26.318;2022-11-20T15:29:26;1001.1;;;-4.4;100
45789;BME280;31492;54.856;26.318;2022-11-20T15:34:02;1001;;;-4.4;100
45789;BME280;31492;54.856;26.318;2022-11-20T15:39:30;1001;;;-4.4;100
45789;BME280;31492;54.856;26.318;2022-11-20T15:44:03;1000.9;;;-4.4;100
45789;BME280;31492;54.856;26.318;2022-11-20T15:49:34;1000.7;;;-4.4;100
45789;BME280;31492;54.856;26.318;2022-11-20T15:54:15;1000.7;;;-4.5;100
45789;BME280;31492;54.856;26.318;2022-11-20T15:59:02;1000.6;;;-4.4;100
45789;BME280;31492;54.856;26.318;2022-11-20T16:04:20;1000.6;;;-4.5;100
45789;BME280;31492;54.856;26.318;2022-11-20T16:09:02;1000.6;;;-4.5;100
45789;BME280;31492;54.856;26.318;2022-11-20T16:14:13;1000.5;;;-4.5;100
45789;BME280;31492;54.856;26.318;2022-11-20T16:19:24;1000.5;;;-4.5;100
45789;BME280;31492;54.856;26.318;2022-11-20T16:24:03;1000.5;;;-4.5;100
45789;BME280;31492;54.856;26.318;2022-11-20T16:29:03;1000.5;;;-4.4;100
45789;BME280;31492;54.856;26.318;2022-11-20T16:34:03;1000.5;;;-4.4;100
45789;BME280;31492;54.856;26.318;2022-11-20T16:39:22;1000.5;;;-4.4;100
45789;BME280;31492;54.856;26.318;2022-11-20T16:44:06;1000.4;;;-4.4;100
45789;BME280;31492;54.856;26.318;2022-11-20T16:49:03;1000.3;;;-4.3;100
45789;BME280;31492;54.856;26.318;2022-11-20T16:54:13;1000.3;;;-4.3;100
45789;BME280;31492;54.856;26.318;2022-11-20T16:59:10;1000.3;;;-4.3;100
45789;BME280;31492;54.856;26.318;2022-11-20T17:04:03;1000.3;;;-4.4;100
45789;BME280;31492;54.856;26.318;2022-11-20T17:09:10;1000.3;;;-4.5;100
45789;BME280;31492;54.856;26.318;2022-11-20T17:14:03;1000.3;;;-4.6;100
45789;BME280;31492;54.856;26.318;2022-11-20T17:19:03;1000.3;;;-4.7;100
45789;BME280;31492;54.856;26.318;2022-11-20T17:24:11;1000.3;;;-4.8;100
45789;BME280;31492;54.856;26.318;2022-11-20T17:29:22;1000.3;;;-4.9;100
45789;BME280;31492;54.856;26.318;2022-11-20T17:34:13;1000.3;;;-4.9;100
45789;BME280;31492;54.856;26.318;2022-11-20T17:39:02;1000.3;;;-5;100
45789;BME280;31492;54.856;26.318;2022-11-20T17:44:11;1000.2;;;-5.1;100
45789;BME280;31492;54.856;26.318;2022-11-20T17:49:03;1000.1;;;-5.1;100
45789;BME280;31492;54.856;26.318;2022-11-20T17:54:23;1000.1;;;-5;100
45789;BME280;31492;54.856;26.318;2022-11-20T17:59:03;1000.1;;;-5.1;100
45789;BME280;31492;54.856;26.318;2022-11-20T18:04:13;1000.1;;;-5.1;100
45789;BME280;31492;54.856;26.318;2022-11-20T18:09:22;1000.1;;;-5;100
45789;BME280;31492;54.856;26.318;2022-11-20T18:14:13;1000.1;;;-5;100
45789;BME280;31492;54.856;26.318;2022-11-20T18:19:47;1000;;;-5;100
45789;BME280;31492;54.856;26.318;2022-11-20T18:24:10;999.9;;;-5;100
45789;BME280;31492;54.856;26.318;2022-11-20T18:29:13;999.9;;;-4.9;100
45789;BME280;31492;54.856;26.318;2022-11-20T18:34:10;999.9;;;-4.9;100
45789;BME280;31492;54.856;26.318;2022-11-20T18:39:11;999.9;;;-4.8;100
45789;BME280;31492;54.856;26.318;2022-11-20T18:44:03;999.8;;;-4.8;100
45789;BME280;31492;54.856;26.318;2022-11-20T18:49:03;999.8;;;-4.8;100
45789;BME280;31492;54.856;26.318;2022-11-20T18:54:03;999.7;;;-4.8;100
45789;BME280;31492;54.856;26.318;2022-11-20T18:59:03;999.7;;;-4.7;100
45789;BME280;31492;54.856;26.318;2022-11-20T19:04:05;999.7;;;-4.7;100
45789;BME280;31492;54.856;26.318;2022-11-20T19:09:12;999.7;;;-4.7;100
45789;BME280;31492;54.856;26.318;2022-11-20T19:14:13;999.7;;;-4.7;100
45789;BME280;31492;54.856;26.318;2022-11-20T19:19:13;999.6;;;-4.7;100
45789;BME280;31492;54.856;26.318;2022-11-20T19:24:03;999.6;;;-4.7;100
45789;BME280;31492;54.856;26.318;2022-11-20T19:29:03;999.6;;;-4.7;100
45789;BME280;31492;54.856;26.318;2022-11-20T19:34:10;999.5;;;-4.7;100
45789;BME280;31492;54.856;26.318;2022-11-20T19:39:03;999.5;;;-4.7;100
45789;BME280;31492;54.856;26.318;2022-11-20T19:44:03;999.5;;;-4.7;100
45789;BME280;31492;54.856;26.318;2022-11-20T19:49:03;999.5;;;-4.7;100
45789;BME280;31492;54.856;26.318;2022-11-20T19:54:22;999.4;;;-4.7;100
45789;BME280;31492;54.856;26.318;2022-11-20T19:59:02;999.4;;;-4.6;100
45789;BME280;31492;54.856;26.318;2022-11-20T20:04:12;999.4;;;-4.6;100
45789;BME280;31492;54.856;26.318;2022-11-20T20:09:11;999.3;;;-4.6;100
45789;BME280;31492;54.856;26.318;2022-11-20T20:14:20;999.4;;;-4.6;100
45789;BME280;31492;54.856;26.318;2022-11-20T20:19:34;999.4;;;-4.5;100
45789;BME280;31492;54.856;26.318;2022-11-20T20:24:03;999.4;;;-4.5;100
45789;BME280;31492;54.856;26.318;2022-11-20T20:29:02;999.5;;;-4.4;100
45789;BME280;31492;54.856;26.318;2022-11-20T20:34:12;999.4;;;-4.4;100
45789;BME280;31492;54.856;26.318;2022-11-20T20:39:10;999.3;;;-4.3;100
45789;BME280;31492;54.856;26.318;2022-11-20T20:44:03;999.3;;;-4.3;100
45789;BME280;31492;54.856;26.318;2022-11-20T20:49:22;999.1;;;-4.3;100
45789;BME280;31492;54.856;26.318;2022-11-20T20:54:03;999.1;;;-4.3;100
45789;BME280;31492;54.856;26.318;2022-11-20T20:59:26;999;;;-4.2;100
45789;BME280;31492;54.856;26.318;2022-11-20T21:04:03;998.9;;;-4.2;100
45789;BME280;31492;54.856;26.318;2022-11-20T21:09:02;998.9;;;-4.1;100
45789;BME280;31492;54.856;26.318;2022-11-20T21:14:15;998.8;;;-4.1;100
45789;BME280;31492;54.856;26.318;2022-11-20T21:19:12;998.8;;;-4.1;100
45789;BME280;31492;54.856;26.318;2022-11-20T21:24:03;998.8;;;-4.1;100
45789;BME280;31492;54.856;26.318;2022-11-20T21:29:11;998.7;;;-4.1;100
45789;BME280;31492;54.856;26.318;2022-11-20T21:34:03;998.6;;;-4.1;100
45789;BME280;31492;54.856;26.318;2022-11-20T21:39:03;998.6;;;-4.1;100
45789;BME280;31492;54.856;26.318;2022-11-20T21:44:13;998.6;;;-4.1;100
45789;BME280;31492;54.856;26.318;2022-11-20T21:49:03;998.5;;;-4.1;100
45789;BME280;31492;54.856;26.318;2022-11-20T21:54:03;998.4;;;-4.1;100
